sensor_id;sensor_type;location;lat;lon;timestamp;P1;durP1;ratioP1;P2;durP2;ratioP2
13406;SDS011;6774;48.208;10.766;2023-03-16T00:00:42;2.57;;;2.37;;
13406;SDS011;6774;48.208;10.766;2023-03-16T00:03:12;2.93;;;1.73;;
13406;SDS011;6774;48.208;10.766;2023-03-16T00:05:44;2.87;;;1.63;;
13406;SDS011;6774;48.208;10.766;2023-03-16T00:08:12;2.00;;;1.80;;
13406;SDS011;6774;48.208;10.766;2023-03-16T00:10:41;2.03;;;1.83;;
13406;SDS011;6774;48.208;10.766;2023-03-16T00:13:12;2.00;;;1.90;;
13406;SDS011;6774;48.208;10.766;2023-03-16T00:15:41;3.70;;;2.37;;
13406;SDS011;6774;48.208;10.766;2023-03-16T00:18:17;3.00;;;2.80;;
13406;SDS011;6774;48.208;10.766;2023-03-16T00:20:48;4.10;;;2.57;;
13406;SDS011;6774;48.208;10.766;2023-03-16T00:23:17;2.20;;;2.10;;
13406;SDS011;6774;48.208;10.766;2023-03-16T00:25:44;2.50;;;2.30;;
13406;SDS011;6774;48.208;10.766;2023-03-16T00:28:12;5.30;;;4.50;;
13406;SDS011;6774;48.208;10.766;2023-03-16T00:30:40;3.23;;;3.03;;
13406;SDS011;6774;48.208;10.766;2023-03-16T00:33:14;2.03;;;1.90;;
13406;SDS011;6774;48.208;10.766;2023-03-16T00:35:45;4.37;;;1.47;;
13406;SDS011;6774;48.208;10.766;2023-03-16T00:38:15;2.13;;;1.93;;
13406;SDS011;6774;48.208;10.766;2023-03-16T00:40:44;1.70;;;1.60;;
13406;SDS011;6774;48.208;10.766;2023-03-16T00:43:12;2.53;;;2.43;;
13406;SDS011;6774;48.208;10.766;2023-03-16T00:45:43;1.73;;;1.63;;
13406;SDS011;6774;48.208;10.766;2023-03-16T00:48:11;2.40;;;2.07;;
13406;SDS011;6774;48.208;10.766;2023-03-16T00:50:40;2.40;;;1.60;;
13406;SDS011;6774;48.208;10.766;2023-03-16T00:53:09;1.97;;;1.87;;
13406;SDS011;6774;48.208;10.766;2023-03-16T00:55:37;1.43;;;1.33;;
13406;SDS011;6774;48.208;10.766;2023-03-16T00:58:05;2.50;;;2.23;;
13406;SDS011;6774;48.208;10.766;2023-03-16T01:00:33;2.00;;;1.90;;
13406;SDS011;6774;48.208;10.766;2023-03-16T01:03:01;2.57;;;2.37;;
13406;SDS011;6774;48.208;10.766;2023-03-16T01:05:29;2.00;;;1.70;;
13406;SDS011;6774;48.208;10.766;2023-03-16T01:07:58;2.93;;;2.43;;
13406;SDS011;6774;48.208;10.766;2023-03-16T01:10:29;2.10;;;1.80;;
13406;SDS011;6774;48.208;10.766;2023-03-16T01:12:57;2.70;;;2.50;;
13406;SDS011;6774;48.208;10.766;2023-03-16T01:15:24;1.73;;;1.63;;
13406;SDS011;6774;48.208;10.766;2023-03-16T01:17:53;1.93;;;1.83;;
13406;SDS011;6774;48.208;10.766;2023-03-16T01:20:20;2.07;;;1.90;;
13406;SDS011;6774;48.208;10.766;2023-03-16T01:22:48;2.17;;;2.07;;
13406;SDS011;6774;48.208;10.766;2023-03-16T01:25:16;1.90;;;1.80;;
13406;SDS011;6774;48.208;10.766;2023-03-16T01:27:45;1.97;;;1.87;;
13406;SDS011;6774;48.208;10.766;2023-03-16T01:30:13;4.27;;;2.13;;
13406;SDS011;6774;48.208;10.766;2023-03-16T01:32:41;1.57;;;1.40;;
13406;SDS011;6774;48.208;10.766;2023-03-16T01:35:11;2.27;;;2.07;;
13406;SDS011;6774;48.208;10.766;2023-03-16T01:37:40;3.70;;;3.40;;
13406;SDS011;6774;48.208;10.766;2023-03-16T01:40:13;1.80;;;1.70;;
13406;SDS011;6774;48.208;10.766;2023-03-16T01:42:46;3.10;;;2.90;;
13406;SDS011;6774;48.208;10.766;2023-03-16T01:48:44;2.33;;;2.23;;
13406;SDS011;6774;48.208;10.766;2023-03-16T01:51:20;2.43;;;2.17;;
13406;SDS011;6774;48.208;10.766;2023-03-16T01:53:52;4.10;;;1.83;;
13406;SDS011;6774;48.208;10.766;2023-03-16T01:56:24;2.40;;;2.20;;
13406;SDS011;6774;48.208;10.766;2023-03-16T01:58:57;2.63;;;2.43;;
13406;SDS011;6774;48.208;10.766;2023-03-16T02:01:28;3.40;;;3.03;;
13406;SDS011;6774;48.208;10.766;2023-03-16T02:04:00;5.33;;;2.93;;
13406;SDS011;6774;48.208;10.766;2023-03-16T02:06:34;1.90;;;1.77;;
13406;SDS011;6774;48.208;10.766;2023-03-16T02:09:04;2.80;;;2.60;;
13406;SDS011;6774;48.208;10.766;2023-03-16T02:11:32;2.13;;;2.03;;
13406;SDS011;6774;48.208;10.766;2023-03-16T02:14:12;2.10;;;2.00;;
13406;SDS011;6774;48.208;10.766;2023-03-16T02:16:41;2.40;;;2.20;;
13406;SDS011;6774;48.208;10.766;2023-03-16T02:19:11;2.53;;;2.43;;
13406;SDS011;6774;48.208;10.766;2023-03-16T02:21:48;6.80;;;2.13;;
13406;SDS011;6774;48.208;10.766;2023-03-16T02:24:20;1.37;;;1.27;;
13406;SDS011;6774;48.208;10.766;2023-03-16T02:26:50;1.73;;;1.63;;
13406;SDS011;6774;48.208;10.766;2023-03-16T02:29:27;1.87;;;1.77;;
13406;SDS011;6774;48.208;10.766;2023-03-16T02:32:19;3.63;;;3.33;;
13406;SDS011;6774;48.208;10.766;2023-03-16T02:34:49;2.23;;;1.27;;
13406;SDS011;6774;48.208;10.766;2023-03-16T02:37:18;2.13;;;2.03;;
13406;SDS011;6774;48.208;10.766;2023-03-16T02:39:47;1.60;;;1.50;;
13406;SDS011;6774;48.208;10.766;2023-03-16T02:42:17;1.43;;;1.33;;
13406;SDS011;6774;48.208;10.766;2023-03-16T02:44:49;2.17;;;1.90;;
13406;SDS011;6774;48.208;10.766;2023-03-16T02:47:28;1.83;;;1.50;;
13406;SDS011;6774;48.208;10.766;2023-03-16T02:50:01;2.50;;;2.30;;
13406;SDS011;6774;48.208;10.766;2023-03-16T02:52:32;3.07;;;2.17;;
13406;SDS011;6774;48.208;10.766;2023-03-16T02:55:00;1.83;;;1.63;;
13406;SDS011;6774;48.208;10.766;2023-03-16T02:57:28;1.87;;;1.77;;
13406;SDS011;6774;48.208;10.766;2023-03-16T03:00:02;1.70;;;1.53;;
13406;SDS011;6774;48.208;10.766;2023-03-16T03:02:39;1.37;;;1.27;;
13406;SDS011;6774;48.208;10.766;2023-03-16T03:05:07;1.47;;;1.37;;
13406;SDS011;6774;48.208;10.766;2023-03-16T03:07:35;2.20;;;2.10;;
13406;SDS011;6774;48.208;10.766;2023-03-16T03:10:05;1.50;;;1.40;;
13406;SDS011;6774;48.208;10.766;2023-03-16T03:12:34;1.60;;;1.50;;
13406;SDS011;6774;48.208;10.766;2023-03-16T03:15:05;2.10;;;1.90;;
13406;SDS011;6774;48.208;10.766;2023-03-16T03:17:45;2.00;;;1.90;;
13406;SDS011;6774;48.208;10.766;2023-03-16T03:20:13;3.03;;;2.70;;
13406;SDS011;6774;48.208;10.766;2023-03-16T03:22:43;1.77;;;1.67;;
13406;SDS011;6774;48.208;10.766;2023-03-16T03:25:13;1.40;;;1.30;;
13406;SDS011;6774;48.208;10.766;2023-03-16T03:27:44;1.80;;;1.70;;
13406;SDS011;6774;48.208;10.766;2023-03-16T03:30:16;1.87;;;1.70;;
13406;SDS011;6774;48.208;10.766;2023-03-16T03:32:47;2.13;;;1.50;;
13406;SDS011;6774;48.208;10.766;2023-03-16T03:35:17;2.63;;;2.43;;
13406;SDS011;6774;48.208;10.766;2023-03-16T03:37:44;2.63;;;1.70;;
13406;SDS011;6774;48.208;10.766;2023-03-16T03:40:14;2.13;;;2.03;;
13406;SDS011;6774;48.208;10.766;2023-03-16T03:42:46;2.27;;;2.13;;
13406;SDS011;6774;48.208;10.766;2023-03-16T03:45:14;2.47;;;2.27;;
13406;SDS011;6774;48.208;10.766;2023-03-16T03:47:43;1.73;;;1.63;;
13406;SDS011;6774;48.208;10.766;2023-03-16T03:50:18;5.37;;;3.20;;
13406;SDS011;6774;48.208;10.766;2023-03-16T03:52:54;3.17;;;2.87;;
13406;SDS011;6774;48.208;10.766;2023-03-16T03:55:22;1.37;;;1.27;;
13406;SDS011;6774;48.208;10.766;2023-03-16T03:57:50;2.67;;;2.47;;
13406;SDS011;6774;48.208;10.766;2023-03-16T04:00:18;2.20;;;1.40;;
13406;SDS011;6774;48.208;10.766;2023-03-16T04:02:47;2.30;;;2.10;;
13406;SDS011;6774;48.208;10.766;2023-03-16T04:05:30;2.97;;;2.77;;
13406;SDS011;6774;48.208;10.766;2023-03-16T04:07:58;2.43;;;2.23;;
13406;SDS011;6774;48.208;10.766;2023-03-16T04:10:26;3.53;;;3.30;;
13406;SDS011;6774;48.208;10.766;2023-03-16T04:12:58;1.70;;;1.47;;
13406;SDS011;6774;48.208;10.766;2023-03-16T04:15:30;3.77;;;3.47;;
13406;SDS011;6774;48.208;10.766;2023-03-16T04:18:08;3.07;;;2.77;;
13406;SDS011;6774;48.208;10.766;2023-03-16T04:20:40;2.53;;;2.30;;
13406;SDS011;6774;48.208;10.766;2023-03-16T04:23:12;2.73;;;2.53;;
13406;SDS011;6774;48.208;10.766;2023-03-16T04:25:43;2.50;;;2.30;;
13406;SDS011;6774;48.208;10.766;2023-03-16T04:28:12;2.47;;;2.27;;
13406;SDS011;6774;48.208;10.766;2023-03-16T04:30:45;2.60;;;2.40;;
13406;SDS011;6774;48.208;10.766;2023-03-16T04:33:22;2.87;;;2.67;;
13406;SDS011;6774;48.208;10.766;2023-03-16T04:35:51;3.20;;;2.90;;
13406;SDS011;6774;48.208;10.766;2023-03-16T04:38:20;2.70;;;1.87;;
13406;SDS011;6774;48.208;10.766;2023-03-16T04:40:53;1.87;;;1.77;;
13406;SDS011;6774;48.208;10.766;2023-03-16T04:43:25;2.07;;;1.97;;
13406;SDS011;6774;48.208;10.766;2023-03-16T04:45:58;2.60;;;2.40;;
13406;SDS011;6774;48.208;10.766;2023-03-16T04:48:28;3.13;;;2.93;;
13406;SDS011;6774;48.208;10.766;2023-03-16T04:50:59;2.87;;;2.67;;
13406;SDS011;6774;48.208;10.766;2023-03-16T04:53:31;2.70;;;2.50;;
13406;SDS011;6774;48.208;10.766;2023-03-16T04:56:06;3.97;;;3.60;;
13406;SDS011;6774;48.208;10.766;2023-03-16T04:58:35;2.70;;;2.27;;
13406;SDS011;6774;48.208;10.766;2023-03-16T05:01:05;2.13;;;2.03;;
13406;SDS011;6774;48.208;10.766;2023-03-16T05:03:33;2.27;;;2.10;;
13406;SDS011;6774;48.208;10.766;2023-03-16T05:06:03;2.10;;;2.00;;
13406;SDS011;6774;48.208;10.766;2023-03-16T05:08:33;2.97;;;2.77;;
13406;SDS011;6774;48.208;10.766;2023-03-16T05:11:01;2.53;;;2.33;;
13406;SDS011;6774;48.208;10.766;2023-03-16T05:13:33;2.90;;;2.60;;
13406;SDS011;6774;48.208;10.766;2023-03-16T05:16:02;2.63;;;2.50;;
13406;SDS011;6774;48.208;10.766;2023-03-16T05:18:35;3.87;;;2.43;;
13406;SDS011;6774;48.208;10.766;2023-03-16T05:21:05;2.73;;;2.53;;
13406;SDS011;6774;48.208;10.766;2023-03-16T05:23:46;2.70;;;2.50;;
13406;SDS011;6774;48.208;10.766;2023-03-16T05:26:13;2.70;;;2.50;;
13406;SDS011;6774;48.208;10.766;2023-03-16T05:28:42;2.87;;;2.67;;
13406;SDS011;6774;48.208;10.766;2023-03-16T05:31:14;3.37;;;3.10;;
13406;SDS011;6774;48.208;10.766;2023-03-16T05:33:46;2.70;;;2.50;;
13406;SDS011;6774;48.208;10.766;2023-03-16T05:36:19;2.97;;;2.77;;
13406;SDS011;6774;48.208;10.766;2023-03-16T05:38:51;2.97;;;2.77;;
13406;SDS011;6774;48.208;10.766;2023-03-16T05:41:27;3.20;;;3.00;;
13406;SDS011;6774;48.208;10.766;2023-03-16T05:44:02;2.57;;;2.37;;
13406;SDS011;6774;48.208;10.766;2023-03-16T05:46:45;2.70;;;2.23;;
13406;SDS011;6774;48.208;10.766;2023-03-16T05:49:12;3.03;;;2.83;;
13406;SDS011;6774;48.208;10.766;2023-03-16T05:51:42;2.90;;;2.70;;
13406;SDS011;6774;48.208;10.766;2023-03-16T05:54:11;3.83;;;3.53;;
13406;SDS011;6774;48.208;10.766;2023-03-16T05:56:44;3.80;;;3.50;;
13406;SDS011;6774;48.208;10.766;2023-03-16T05:59:13;3.33;;;3.03;;
13406;SDS011;6774;48.208;10.766;2023-03-16T06:01:47;3.53;;;3.27;;
13406;SDS011;6774;48.208;10.766;2023-03-16T06:04:17;3.37;;;3.17;;
13406;SDS011;6774;48.208;10.766;2023-03-16T06:06:46;4.57;;;3.00;;
13406;SDS011;6774;48.208;10.766;2023-03-16T06:09:19;3.37;;;3.13;;
13406;SDS011;6774;48.208;10.766;2023-03-16T06:11:46;4.03;;;3.80;;
13406;SDS011;6774;48.208;10.766;2023-03-16T06:14:16;2.53;;;2.33;;
13406;SDS011;6774;48.208;10.766;2023-03-16T06:16:44;3.03;;;2.67;;
13406;SDS011;6774;48.208;10.766;2023-03-16T06:19:13;2.60;;;2.40;;
13406;SDS011;6774;48.208;10.766;2023-03-16T06:21:43;3.77;;;3.57;;
13406;SDS011;6774;48.208;10.766;2023-03-16T06:24:12;2.80;;;2.60;;
13406;SDS011;6774;48.208;10.766;2023-03-16T06:26:40;3.37;;;3.17;;
13406;SDS011;6774;48.208;10.766;2023-03-16T06:29:11;2.83;;;2.63;;
13406;SDS011;6774;48.208;10.766;2023-03-16T06:31:40;5.80;;;4.77;;
13406;SDS011;6774;48.208;10.766;2023-03-16T06:34:09;6.00;;;5.53;;
13406;SDS011;6774;48.208;10.766;2023-03-16T06:36:37;5.57;;;5.07;;
13406;SDS011;6774;48.208;10.766;2023-03-16T06:39:09;4.60;;;4.30;;
13406;SDS011;6774;48.208;10.766;2023-03-16T06:41:45;5.17;;;4.67;;
13406;SDS011;6774;48.208;10.766;2023-03-16T06:44:15;4.30;;;3.90;;
13406;SDS011;6774;48.208;10.766;2023-03-16T06:46:55;4.10;;;3.80;;
13406;SDS011;6774;48.208;10.766;2023-03-16T06:49:23;3.93;;;3.63;;
13406;SDS011;6774;48.208;10.766;2023-03-16T06:51:51;5.27;;;4.83;;
13406;SDS011;6774;48.208;10.766;2023-03-16T06:54:19;5.57;;;5.07;;
13406;SDS011;6774;48.208;10.766;2023-03-16T06:56:48;4.87;;;4.53;;
13406;SDS011;6774;48.208;10.766;2023-03-16T06:59:17;5.17;;;4.67;;
13406;SDS011;6774;48.208;10.766;2023-03-16T07:01:45;4.77;;;4.40;;
13406;SDS011;6774;48.208;10.766;2023-03-16T07:04:13;3.60;;;3.40;;
13406;SDS011;6774;48.208;10.766;2023-03-16T07:06:40;4.30;;;4.00;;
13406;SDS011;6774;48.208;10.766;2023-03-16T07:09:10;13.07;;;9.13;;
13406;SDS011;6774;48.208;10.766;2023-03-16T07:11:38;15.73;;;10.20;;
13406;SDS011;6774;48.208;10.766;2023-03-16T07:14:07;8.70;;;7.90;;
13406;SDS011;6774;48.208;10.766;2023-03-16T07:16:35;9.77;;;8.80;;
13406;SDS011;6774;48.208;10.766;2023-03-16T07:19:05;11.67;;;10.17;;
13406;SDS011;6774;48.208;10.766;2023-03-16T07:21:33;9.23;;;8.40;;
13406;SDS011;6774;48.208;10.766;2023-03-16T07:24:09;9.47;;;8.57;;
13406;SDS011;6774;48.208;10.766;2023-03-16T07:26:39;10.60;;;9.53;;
13406;SDS011;6774;48.208;10.766;2023-03-16T07:29:11;11.67;;;9.77;;
13406;SDS011;6774;48.208;10.766;2023-03-16T07:31:39;8.60;;;7.90;;
13406;SDS011;6774;48.208;10.766;2023-03-16T07:34:13;10.40;;;9.00;;
13406;SDS011;6774;48.208;10.766;2023-03-16T07:36:45;11.53;;;9.27;;
13406;SDS011;6774;48.208;10.766;2023-03-16T07:39:15;9.93;;;8.63;;
13406;SDS011;6774;48.208;10.766;2023-03-16T07:41:43;9.60;;;8.80;;
13406;SDS011;6774;48.208;10.766;2023-03-16T07:44:15;9.63;;;7.77;;
13406;SDS011;6774;48.208;10.766;2023-03-16T07:46:46;7.90;;;7.27;;
13406;SDS011;6774;48.208;10.766;2023-03-16T07:49:15;7.90;;;7.27;;
13406;SDS011;6774;48.208;10.766;2023-03-16T07:51:46;8.33;;;7.53;;
13406;SDS011;6774;48.208;10.766;2023-03-16T07:54:17;8.00;;;7.30;;
13406;SDS011;6774;48.208;10.766;2023-03-16T07:56:45;7.10;;;6.40;;
13406;SDS011;6774;48.208;10.766;2023-03-16T07:59:39;8.23;;;7.63;;
13406;SDS011;6774;48.208;10.766;2023-03-16T08:02:11;10.70;;;9.77;;
13406;SDS011;6774;48.208;10.766;2023-03-16T08:04:40;9.70;;;8.80;;
13406;SDS011;6774;48.208;10.766;2023-03-16T08:07:10;9.97;;;8.97;;
13406;SDS011;6774;48.208;10.766;2023-03-16T08:09:49;8.23;;;7.43;;
13406;SDS011;6774;48.208;10.766;2023-03-16T08:12:22;8.67;;;7.97;;
13406;SDS011;6774;48.208;10.766;2023-03-16T08:14:51;8.90;;;8.13;;
13406;SDS011;6774;48.208;10.766;2023-03-16T08:17:26;8.40;;;7.70;;
13406;SDS011;6774;48.208;10.766;2023-03-16T08:19:57;7.53;;;6.83;;
13406;SDS011;6774;48.208;10.766;2023-03-16T08:22:25;7.37;;;6.77;;
13406;SDS011;6774;48.208;10.766;2023-03-16T08:24:53;8.07;;;7.27;;
13406;SDS011;6774;48.208;10.766;2023-03-16T08:27:21;7.17;;;6.60;;
13406;SDS011;6774;48.208;10.766;2023-03-16T08:29:55;6.70;;;6.30;;
13406;SDS011;6774;48.208;10.766;2023-03-16T08:32:27;10.33;;;7.27;;
13406;SDS011;6774;48.208;10.766;2023-03-16T08:34:56;5.87;;;5.47;;
13406;SDS011;6774;48.208;10.766;2023-03-16T08:37:24;6.70;;;6.10;;
13406;SDS011;6774;48.208;10.766;2023-03-16T08:39:53;7.00;;;6.43;;
13406;SDS011;6774;48.208;10.766;2023-03-16T08:42:21;7.87;;;5.77;;
13406;SDS011;6774;48.208;10.766;2023-03-16T08:44:56;6.60;;;6.07;;
13406;SDS011;6774;48.208;10.766;2023-03-16T08:47:28;6.23;;;5.83;;
13406;SDS011;6774;48.208;10.766;2023-03-16T08:49:57;5.97;;;5.37;;
13406;SDS011;6774;48.208;10.766;2023-03-16T08:52:25;5.37;;;5.07;;
13406;SDS011;6774;48.208;10.766;2023-03-16T08:54:53;5.67;;;5.23;;
13406;SDS011;6774;48.208;10.766;2023-03-16T08:57:29;6.57;;;6.03;;
13406;SDS011;6774;48.208;10.766;2023-03-16T08:59:59;9.60;;;6.10;;
13406;SDS011;6774;48.208;10.766;2023-03-16T09:02:34;5.47;;;4.93;;
13406;SDS011;6774;48.208;10.766;2023-03-16T09:05:04;5.03;;;4.63;;
13406;SDS011;6774;48.208;10.766;2023-03-16T09:07:33;3.97;;;3.40;;
13406;SDS011;6774;48.208;10.766;2023-03-16T09:10:01;4.03;;;3.73;;
13406;SDS011;6774;48.208;10.766;2023-03-16T09:12:31;4.93;;;4.60;;
13406;SDS011;6774;48.208;10.766;2023-03-16T09:15:02;4.53;;;4.23;;
13406;SDS011;6774;48.208;10.766;2023-03-16T09:17:31;4.03;;;3.73;;
13406;SDS011;6774;48.208;10.766;2023-03-16T09:19:58;4.03;;;3.73;;
13406;SDS011;6774;48.208;10.766;2023-03-16T09:22:47;3.80;;;3.60;;
13406;SDS011;6774;48.208;10.766;2023-03-16T09:25:14;3.83;;;3.60;;
13406;SDS011;6774;48.208;10.766;2023-03-16T09:27:42;3.83;;;3.57;;
13406;SDS011;6774;48.208;10.766;2023-03-16T09:30:12;4.80;;;4.50;;
13406;SDS011;6774;48.208;10.766;2023-03-16T09:32:42;4.60;;;4.27;;
13406;SDS011;6774;48.208;10.766;2023-03-16T09:35:10;3.23;;;2.97;;
13406;SDS011;6774;48.208;10.766;2023-03-16T09:37:38;5.10;;;3.63;;
13406;SDS011;6774;48.208;10.766;2023-03-16T09:40:20;4.20;;;3.83;;
13406;SDS011;6774;48.208;10.766;2023-03-16T09:42:53;4.50;;;4.10;;
13406;SDS011;6774;48.208;10.766;2023-03-16T09:45:33;3.03;;;2.83;;
13406;SDS011;6774;48.208;10.766;2023-03-16T09:48:07;3.53;;;3.33;;
13406;SDS011;6774;48.208;10.766;2023-03-16T09:50:38;3.20;;;2.67;;
13406;SDS011;6774;48.208;10.766;2023-03-16T09:53:16;3.20;;;2.90;;
13406;SDS011;6774;48.208;10.766;2023-03-16T09:55:51;6.97;;;5.10;;
13406;SDS011;6774;48.208;10.766;2023-03-16T09:58:24;4.73;;;4.20;;
13406;SDS011;6774;48.208;10.766;2023-03-16T10:00:57;2.93;;;2.63;;
13406;SDS011;6774;48.208;10.766;2023-03-16T10:03:38;2.10;;;2.00;;
13406;SDS011;6774;48.208;10.766;2023-03-16T10:06:22;2.97;;;1.90;;
13406;SDS011;6774;48.208;10.766;2023-03-16T10:08:53;2.80;;;2.60;;
13406;SDS011;6774;48.208;10.766;2023-03-16T10:11:29;2.47;;;2.20;;
13406;SDS011;6774;48.208;10.766;2023-03-16T10:13:59;2.33;;;2.13;;
13406;SDS011;6774;48.208;10.766;2023-03-16T10:16:38;1.87;;;1.77;;
13406;SDS011;6774;48.208;10.766;2023-03-16T10:19:09;2.20;;;2.10;;
13406;SDS011;6774;48.208;10.766;2023-03-16T10:21:42;2.20;;;2.10;;
13406;SDS011;6774;48.208;10.766;2023-03-16T10:24:15;2.30;;;2.20;;
13406;SDS011;6774;48.208;10.766;2023-03-16T10:26:53;2.77;;;2.67;;
13406;SDS011;6774;48.208;10.766;2023-03-16T10:29:33;2.67;;;2.57;;
13406;SDS011;6774;48.208;10.766;2023-03-16T10:32:10;6.23;;;2.37;;
13406;SDS011;6774;48.208;10.766;2023-03-16T10:34:39;2.50;;;2.17;;
13406;SDS011;6774;48.208;10.766;2023-03-16T10:37:09;2.23;;;2.13;;
13406;SDS011;6774;48.208;10.766;2023-03-16T10:39:39;2.47;;;2.27;;
13406;SDS011;6774;48.208;10.766;2023-03-16T10:42:13;2.40;;;2.23;;
13406;SDS011;6774;48.208;10.766;2023-03-16T10:44:42;1.93;;;1.83;;
13406;SDS011;6774;48.208;10.766;2023-03-16T10:47:16;2.47;;;2.27;;
13406;SDS011;6774;48.208;10.766;2023-03-16T10:49:48;1.80;;;1.70;;
13406;SDS011;6774;48.208;10.766;2023-03-16T10:52:18;3.27;;;3.00;;
13406;SDS011;6774;48.208;10.766;2023-03-16T10:54:50;2.23;;;2.03;;
13406;SDS011;6774;48.208;10.766;2023-03-16T10:57:24;2.40;;;2.30;;
13406;SDS011;6774;48.208;10.766;2023-03-16T10:59:58;3.77;;;2.77;;
13406;SDS011;6774;48.208;10.766;2023-03-16T11:02:42;2.67;;;2.57;;
13406;SDS011;6774;48.208;10.766;2023-03-16T11:05:12;2.33;;;2.17;;
13406;SDS011;6774;48.208;10.766;2023-03-16T11:07:46;2.83;;;2.47;;
13406;SDS011;6774;48.208;10.766;2023-03-16T11:10:24;2.90;;;1.60;;
13406;SDS011;6774;48.208;10.766;2023-03-16T11:13:00;1.80;;;1.70;;
13406;SDS011;6774;48.208;10.766;2023-03-16T11:15:32;1.07;;;1.07;;
13406;SDS011;6774;48.208;10.766;2023-03-16T11:18:05;1.77;;;1.50;;
13406;SDS011;6774;48.208;10.766;2023-03-16T11:20:39;1.93;;;1.40;;
13406;SDS011;6774;48.208;10.766;2023-03-16T11:23:08;5.03;;;1.90;;
13406;SDS011;6774;48.208;10.766;2023-03-16T11:25:44;2.77;;;2.57;;
13406;SDS011;6774;48.208;10.766;2023-03-16T11:28:18;2.27;;;2.17;;
13406;SDS011;6774;48.208;10.766;2023-03-16T11:30:59;2.57;;;1.87;;
13406;SDS011;6774;48.208;10.766;2023-03-16T11:33:37;2.40;;;2.30;;
13406;SDS011;6774;48.208;10.766;2023-03-16T11:36:11;2.27;;;2.03;;
13406;SDS011;6774;48.208;10.766;2023-03-16T11:38:47;2.70;;;1.33;;
13406;SDS011;6774;48.208;10.766;2023-03-16T11:41:27;1.57;;;1.47;;
13406;SDS011;6774;48.208;10.766;2023-03-16T11:44:04;1.37;;;1.27;;
13406;SDS011;6774;48.208;10.766;2023-03-16T11:46:41;2.27;;;2.13;;
13406;SDS011;6774;48.208;10.766;2023-03-16T11:49:26;2.27;;;1.17;;
13406;SDS011;6774;48.208;10.766;2023-03-16T11:52:03;1.53;;;1.40;;
13406;SDS011;6774;48.208;10.766;2023-03-16T11:54:39;1.70;;;1.60;;
13406;SDS011;6774;48.208;10.766;2023-03-16T11:57:21;2.20;;;1.77;;
13406;SDS011;6774;48.208;10.766;2023-03-16T12:00:02;2.53;;;2.33;;
13406;SDS011;6774;48.208;10.766;2023-03-16T12:02:43;2.83;;;2.63;;
13406;SDS011;6774;48.208;10.766;2023-03-16T12:08:15;1.80;;;1.70;;
13406;SDS011;6774;48.208;10.766;2023-03-16T12:10:52;1.57;;;1.20;;
13406;SDS011;6774;48.208;10.766;2023-03-16T12:13:36;1.93;;;1.83;;
13406;SDS011;6774;48.208;10.766;2023-03-16T12:16:16;1.83;;;1.30;;
13406;SDS011;6774;48.208;10.766;2023-03-16T12:18:48;1.70;;;1.60;;
13406;SDS011;6774;48.208;10.766;2023-03-16T12:21:22;1.73;;;1.63;;
13406;SDS011;6774;48.208;10.766;2023-03-16T12:23:57;2.07;;;1.90;;
13406;SDS011;6774;48.208;10.766;2023-03-16T12:26:30;4.47;;;2.30;;
13406;SDS011;6774;48.208;10.766;2023-03-16T12:29:00;1.60;;;1.53;;
13406;SDS011;6774;48.208;10.766;2023-03-16T12:31:36;1.33;;;1.23;;
13406;SDS011;6774;48.208;10.766;2023-03-16T12:34:13;2.03;;;1.93;;
13406;SDS011;6774;48.208;10.766;2023-03-16T12:36:53;1.57;;;1.47;;
13406;SDS011;6774;48.208;10.766;2023-03-16T12:39:44;3.17;;;2.13;;
13406;SDS011;6774;48.208;10.766;2023-03-16T12:42:23;3.97;;;1.57;;
13406;SDS011;6774;48.208;10.766;2023-03-16T12:45:03;2.87;;;2.67;;
13406;SDS011;6774;48.208;10.766;2023-03-16T12:47:39;2.53;;;2.03;;
13406;SDS011;6774;48.208;10.766;2023-03-16T12:50:16;1.87;;;1.77;;
13406;SDS011;6774;48.208;10.766;2023-03-16T12:52:48;1.27;;;1.23;;
13406;SDS011;6774;48.208;10.766;2023-03-16T12:55:17;1.90;;;1.80;;
13406;SDS011;6774;48.208;10.766;2023-03-16T12:57:47;1.90;;;1.80;;
13406;SDS011;6774;48.208;10.766;2023-03-16T13:00:17;1.93;;;1.83;;
13406;SDS011;6774;48.208;10.766;2023-03-16T13:02:48;3.13;;;2.93;;
13406;SDS011;6774;48.208;10.766;2023-03-16T13:05:26;1.60;;;1.50;;
13406;SDS011;6774;48.208;10.766;2023-03-16T13:08:05;2.73;;;2.53;;
13406;SDS011;6774;48.208;10.766;2023-03-16T13:10:36;3.17;;;2.60;;
13406;SDS011;6774;48.208;10.766;2023-03-16T13:13:07;1.17;;;1.10;;
13406;SDS011;6774;48.208;10.766;2023-03-16T13:15:40;1.43;;;1.20;;
13406;SDS011;6774;48.208;10.766;2023-03-16T13:18:22;1.67;;;1.57;;
13406;SDS011;6774;48.208;10.766;2023-03-16T13:20:52;1.90;;;1.77;;
13406;SDS011;6774;48.208;10.766;2023-03-16T13:23:25;1.50;;;1.40;;
13406;SDS011;6774;48.208;10.766;2023-03-16T13:26:09;2.50;;;2.30;;
13406;SDS011;6774;48.208;10.766;2023-03-16T13:28:41;2.20;;;1.50;;
13406;SDS011;6774;48.208;10.766;2023-03-16T13:31:19;2.97;;;1.70;;
13406;SDS011;6774;48.208;10.766;2023-03-16T13:33:51;2.00;;;1.90;;
13406;SDS011;6774;48.208;10.766;2023-03-16T13:36:21;1.60;;;1.47;;
13406;SDS011;6774;48.208;10.766;2023-03-16T13:38:57;2.40;;;2.20;;
13406;SDS011;6774;48.208;10.766;2023-03-16T13:41:31;1.83;;;1.73;;
13406;SDS011;6774;48.208;10.766;2023-03-16T13:43:59;5.47;;;3.27;;
13406;SDS011;6774;48.208;10.766;2023-03-16T13:46:27;1.70;;;1.60;;
13406;SDS011;6774;48.208;10.766;2023-03-16T13:48:56;2.50;;;2.40;;
13406;SDS011;6774;48.208;10.766;2023-03-16T13:51:26;1.90;;;1.80;;
13406;SDS011;6774;48.208;10.766;2023-03-16T13:53:58;2.40;;;2.20;;
13406;SDS011;6774;48.208;10.766;2023-03-16T13:56:34;1.93;;;1.83;;
13406;SDS011;6774;48.208;10.766;2023-03-16T13:59:06;1.90;;;1.80;;
13406;SDS011;6774;48.208;10.766;2023-03-16T14:01:35;1.50;;;1.40;;
13406;SDS011;6774;48.208;10.766;2023-03-16T14:04:08;4.97;;;2.37;;
13406;SDS011;6774;48.208;10.766;2023-03-16T14:06:49;2.30;;;2.20;;
13406;SDS011;6774;48.208;10.766;2023-03-16T14:09:23;2.20;;;2.00;;
13406;SDS011;6774;48.208;10.766;2023-03-16T14:11:54;2.23;;;2.10;;
13406;SDS011;6774;48.208;10.766;2023-03-16T14:14:24;4.87;;;2.33;;
13406;SDS011;6774;48.208;10.766;2023-03-16T14:16:58;1.80;;;1.70;;
13406;SDS011;6774;48.208;10.766;2023-03-16T14:19:33;2.40;;;2.20;;
13406;SDS011;6774;48.208;10.766;2023-03-16T14:22:14;1.93;;;1.83;;
13406;SDS011;6774;48.208;10.766;2023-03-16T14:24:50;3.67;;;3.00;;
13406;SDS011;6774;48.208;10.766;2023-03-16T14:27:22;4.47;;;2.87;;
13406;SDS011;6774;48.208;10.766;2023-03-16T14:29:58;1.80;;;1.70;;
13406;SDS011;6774;48.208;10.766;2023-03-16T14:32:27;2.20;;;2.00;;
13406;SDS011;6774;48.208;10.766;2023-03-16T14:35:09;2.87;;;2.67;;
13406;SDS011;6774;48.208;10.766;2023-03-16T14:37:40;2.90;;;1.73;;
13406;SDS011;6774;48.208;10.766;2023-03-16T14:42:55;2.97;;;2.17;;
13406;SDS011;6774;48.208;10.766;2023-03-16T14:45:26;1.93;;;1.53;;
13406;SDS011;6774;48.208;10.766;2023-03-16T14:48:02;6.37;;;3.13;;
13406;SDS011;6774;48.208;10.766;2023-03-16T14:50:32;1.80;;;1.70;;
13406;SDS011;6774;48.208;10.766;2023-03-16T14:53:00;2.17;;;2.07;;
13406;SDS011;6774;48.208;10.766;2023-03-16T14:55:30;2.47;;;1.50;;
13406;SDS011;6774;48.208;10.766;2023-03-16T14:57:58;2.00;;;1.90;;
13406;SDS011;6774;48.208;10.766;2023-03-16T15:00:26;1.90;;;1.80;;
13406;SDS011;6774;48.208;10.766;2023-03-16T15:03:01;2.57;;;2.47;;
13406;SDS011;6774;48.208;10.766;2023-03-16T15:05:34;2.00;;;1.90;;
13406;SDS011;6774;48.208;10.766;2023-03-16T15:08:04;3.80;;;1.80;;
13406;SDS011;6774;48.208;10.766;2023-03-16T15:10:37;1.60;;;1.50;;
13406;SDS011;6774;48.208;10.766;2023-03-16T15:13:09;2.43;;;2.23;;
13406;SDS011;6774;48.208;10.766;2023-03-16T15:15:41;3.63;;;2.33;;
13406;SDS011;6774;48.208;10.766;2023-03-16T15:18:09;9.13;;;2.60;;
13406;SDS011;6774;48.208;10.766;2023-03-16T15:20:38;2.37;;;2.27;;
13406;SDS011;6774;48.208;10.766;2023-03-16T15:23:09;2.10;;;1.97;;
13406;SDS011;6774;48.208;10.766;2023-03-16T15:25:41;2.30;;;2.20;;